Time;durP1;ratioP1;P1;durP2;ratioP2;P2;SDS_P1;SDS_P2;PMS_P1;PMS_P2;Temp;Humidity;BMP_temperature;BMP_pressure;BME280_temperature;BME280_humidity;BME280_pressure;Samples;Min_cycle;Max_cycle;Signal;HPM_P1;HPM_P2
2023/07/17 00:02:02;;;;;;;9.93;3.02;;;;;;;23.89;43.11;100301.54;1725720;83;21317;-80
2023/07/17 00:05:07;;;;;;;9.10;3.00;;;;;;;23.94;43.16;100305.77;1727267;82;21338;-81
2023/07/17 00:08:14;;;;;;;9.45;2.98;;;;;;;23.73;43.63;100305.30;1721317;83;21290;-80
2023/07/17 00:11:21;;;;;;;10.30;3.33;;;;;;;23.91;43.31;100299.34;1720087;83;21627;-80
2023/07/17 00:14:26;;;;;;;6.58;3.50;;;;;;;23.98;43.18;100306.38;1720151;83;21338;-80
2023/07/17 00:17:31;;;;;;;23.42;3.75;;;;;;;23.75;43.68;100308.09;1720046;83;21322;-79
2023/07/17 00:20:39;;;;;;;15.25;3.42;;;;;;;23.61;44.08;100305.41;1720914;82;21310;-79
2023/07/17 00:23:47;;;;;;;10.25;3.20;;;;;;;23.45;44.56;100305.23;1720591;83;21330;-80
2023/07/17 00:26:53;;;;;;;6.25;3.22;;;;;;;23.38;44.79;100303.22;1721490;83;21318;-80
2023/07/17 00:29:59;;;;;;;10.20;3.60;;;;;;;23.58;44.55;100306.79;1720010;82;21900;-79
2023/07/17 00:33:05;;;;;;;11.80;3.77;;;;;;;23.66;44.38;100302.14;1720998;83;21350;-79
2023/07/17 00:36:05;;;;;;;12.25;3.58;;;;;;;23.79;44.28;100302.28;1721212;83;21342;-79
2023/07/17 00:39:10;;;;;;;14.00;3.67;;;;;;;23.77;44.36;100305.06;1721281;83;21322;-80
2023/07/17 00:42:15;;;;;;;7.60;3.15;;;;;;;23.55;44.75;100293.90;1721503;83;21302;-79
2023/07/17 00:45:22;;;;;;;6.17;3.45;;;;;;;23.74;44.48;100291.62;1721556;83;21329;-80
2023/07/17 00:48:28;;;;;;;14.65;3.98;;;;;;;23.71;44.42;100292.45;1721385;83;21306;-80
2023/07/17 00:51:34;;;;;;;4.87;3.15;;;;;;;23.63;44.65;100297.07;1721112;83;22018;-79
2023/07/17 00:54:41;;;;;;;7.47;3.30;;;;;;;23.87;44.35;100295.39;1720525;83;21360;-79
2023/07/17 00:57:47;;;;;;;6.65;3.20;;;;;;;23.67;44.61;100294.08;1721907;83;21389;-79
2023/07/17 01:00:53;;;;;;;7.78;3.33;;;;;;;23.83;44.40;100292.27;1719997;82;21330;-79
2023/07/17 01:04:02;;;;;;;8.80;3.75;;;;;;;24.07;43.99;100298.36;1719990;83;21231;-80
2023/07/17 01:14:49;;;;;;;6.22;3.25;;;;;;;23.82;44.40;100288.36;1715555;82;21302;-79
2023/07/17 01:17:56;;;;;;;9.85;3.90;;;;;;;23.75;44.54;100293.30;1738251;82;21310;-80
2023/07/17 01:21:02;;;;;;;6.47;3.65;;;;;;;23.86;44.28;100298.73;1734114;82;21334;-79
2023/07/17 01:24:08;;;;;;;12.47;4.12;;;;;;;23.82;44.38;100298.13;1736095;82;21294;-80
2023/07/17 01:27:14;;;;;;;10.08;3.95;;;;;;;23.84;44.32;100302.89;1736140;82;21294;-80
2023/07/17 01:30:20;;;;;;;8.15;3.60;;;;;;;23.92;44.17;100303.26;1733853;82;21321;-79
2023/07/17 01:33:27;;;;;;;7.40;3.40;;;;;;;23.73;44.56;100303.34;1734033;82;21863;-80
2023/07/17 01:36:27;;;;;;;11.85;3.35;;;;;;;23.80;44.35;100298.93;1734624;82;21322;-79
2023/07/17 01:39:32;;;;;;;6.17;4.40;;;;;;;23.66;44.70;100304.94;1734056;82;21845;-79
2023/07/17 01:42:40;;;;;;;8.35;4.05;;;;;;;23.87;44.34;100304.61;1734170;82;21310;-79
2023/07/17 01:45:46;;;;;;;6.85;3.67;;;;;;;23.92;44.14;100301.86;1732532;82;21366;-79
2023/07/17 01:48:52;;;;;;;8.05;3.58;;;;;;;23.64;44.74;100312.74;1733911;82;21290;-80
2023/07/17 01:51:57;;;;;;;20.35;3.45;;;;;;;23.54;44.86;100308.41;1734056;82;21302;-79
2023/07/17 01:55:02;;;;;;;7.92;3.47;;;;;;;23.62;44.86;100312.66;1732989;82;21349;-79
2023/07/17 01:58:08;;;;;;;11.80;3.87;;;;;;;23.53;45.08;100308.13;1734002;82;21868;-79
2023/07/17 02:01:13;;;;;;;9.28;3.40;;;;;;;23.48;45.27;100316.45;1733941;82;22201;-79
2023/07/17 02:04:21;;;;;;;12.47;4.08;;;;;;;23.50;45.28;100317.02;1733800;82;21900;-80
2023/07/17 02:07:25;;;;;;;20.05;4.30;;;;;;;23.56;45.18;100321.55;1733956;82;21322;-80
2023/07/17 02:10:31;;;;;;;11.48;3.45;;;;;;;23.75;44.86;100315.64;1734049;82;21310;-80
2023/07/17 02:13:36;;;;;;;6.03;3.95;;;;;;;23.71;44.95;100321.77;1744263;82;21333;-80
2023/07/17 02:16:41;;;;;;;9.85;3.70;;;;;;;23.77;44.87;100321.82;1698648;83;21873;-80
2023/07/17 02:19:50;;;;;;;6.92;3.70;;;;;;;23.85;44.77;100322.16;1669935;85;21292;-79
2023/07/17 02:22:57;;;;;;;7.00;3.67;;;;;;;24.14;44.36;100320.52;1687142;85;21332;-80
2023/07/17 02:26:03;;;;;;;10.65;3.70;;;;;;;24.30;44.08;100320.08;1673537;85;22622;-79
2023/07/17 02:29:09;;;;;;;17.80;3.98;;;;;;;24.69;43.42;100325.70;1673501;85;21343;-80
2023/07/17 02:32:15;;;;;;;18.07;3.67;;;;;;;25.02;42.98;100323.67;1673567;85;21323;-79
2023/07/17 02:35:24;;;;;;;12.15;4.00;;;;;;;25.47;42.22;100325.03;1672246;85;21354;-79
2023/07/17 02:38:30;;;;;;;17.65;4.00;;;;;;;25.78;41.55;100327.94;1673090;85;21423;-79
2023/07/17 02:41:38;;;;;;;5.25;3.65;;;;;;;26.12;40.73;100331.10;1673567;85;21335;-79
2023/07/17 02:44:44;;;;;;;6.47;3.45;;;;;;;26.52;40.06;100331.68;1673379;85;21324;-79
2023/07/17 02:47:50;;;;;;;7.08;3.55;;;;;;;27.08;39.20;100334.41;1673557;85;21374;-80
2023/07/17 02:51:00;;;;;;;9.18;3.45;;;;;;;27.54;38.33;100333.41;1673506;85;21339;-80
2023/07/17 02:54:07;;;;;;;10.28;3.42;;;;;;;28.06;37.42;100334.23;1672964;85;21208;-80
2023/07/17 02:57:14;;;;;;;4.65;2.62;;;;;;;28.42;36.56;100336.78;1673496;85;21641;-80
2023/07/17 03:00:21;;;;;;;9.48;2.90;;;;;;;28.93;35.77;100336.30;1673545;85;21879;-80
2023/07/17 03:03:20;;;;;;;8.38;3.15;;;;;;;29.23;35.17;100340.23;1672869;85;21355;-80
2023/07/17 03:06:25;;;;;;;10.98;2.90;;;;;;;29.52;34.75;100341.55;1672481;85;21929;-80
2023/07/17 03:09:31;;;;;;;7.03;3.00;;;;;;;29.76;34.31;100345.76;1673057;85;21367;-80
2023/07/17 03:12:38;;;;;;;12.80;2.87;;;;;;;29.94;34.01;100345.51;1673431;85;21327;-80
2023/07/17 03:15:44;;;;;;;12.98;3.95;;;;;;;30.30;33.42;100346.38;1688204;82;21345;-79
2023/07/17 03:18:50;;;;;;;8.98;3.22;;;;;;;30.59;32.92;100352.41;1731422;83;21674;-80
2023/07/17 03:21:56;;;;;;;8.58;3.15;;;;;;;30.71;32.69;100350.78;1739605;82;21309;-80
2023/07/17 03:25:02;;;;;;;6.03;3.02;;;;;;;30.77;32.52;100345.87;1730711;83;21341;-79
2023/07/17 03:28:07;;;;;;;4.97;2.75;;;;;;;31.00;32.17;100355.34;1744654;82;21286;-80
2023/07/17 03:31:13;;;;;;;8.35;3.33;;;;;;;31.20;31.91;100354.96;1748168;81;21306;-80
2023/07/17 03:34:19;;;;;;;6.17;3.17;;;;;;;31.28;31.87;100354.23;1751518;81;21310;-80
2023/07/17 03:37:25;;;;;;;5.95;3.05;;;;;;;31.42;31.96;100352.83;1753584;82;21324;-80
2023/07/17 03:40:30;;;;;;;7.95;2.80;;;;;;;31.60;31.66;100346.80;1745630;81;21322;-80
2023/07/17 03:43:36;;;;;;;14.23;3.25;;;;;;;31.92;31.45;100356.31;1759275;81;21872;-80
2023/07/17 03:46:42;;;;;;;8.90;3.10;;;;;;;32.06;31.36;100362.77;1743871;82;21310;-80
2023/07/17 03:49:50;;;;;;;6.90;2.77;;;;;;;32.38;31.07;100351.84;1750465;81;21864;-79
2023/07/17 03:52:56;;;;;;;13.28;3.12;;;;;;;32.42;30.99;100354.84;1763087;81;21298;-81
2023/07/17 03:55:55;;;;;;;9.10;3.42;;;;;;;31.98;31.09;100363.52;1760598;81;21321;-81
2023/07/17 03:59:00;;;;;;;9.33;3.02;;;;;;;32.00;31.03;100357.81;1745000;81;21325;-81
2023/07/17 04:02:05;;;;;;;10.82;3.90;;;;;;;31.71;31.01;100360.99;1755217;81;21337;-82
2023/07/17 04:05:11;;;;;;;5.33;3.42;;;;;;;31.74;31.21;100360.34;1755279;81;21302;-81
2023/07/17 04:08:16;;;;;;;9.13;3.58;;;;;;;31.53;31.47;100356.30;1762933;81;21298;-80
2023/07/17 04:11:22;;;;;;;8.20;3.25;;;;;;;31.50;31.80;100367.64;1759917;81;21313;-81
2023/07/17 04:14:29;;;;;;;6.53;3.55;;;;;;;31.45;31.99;100363.52;1753247;81;21191;-81
2023/07/17 04:17:34;;;;;;;4.72;2.95;;;;;;;31.53;32.03;100359.95;1761516;81;21329;-81
2023/07/17 04:20:40;;;;;;;7.80;3.35;;;;;;;31.27;31.99;100359.63;1755243;81;21321;-81
2023/07/17 04:23:50;;;;;;;5.70;2.90;;;;;;;31.00;32.42;100372.28;1748530;81;21293;-80
2023/07/17 04:26:54;;;;;;;;;;;;;;;31.04;32.50;100364.87;1773325;81;21269;-80
2023/07/17 04:30:00;;;;;;;7.55;3.05;;;;;;;30.99;32.78;100366.37;1766401;80;20320;-80
2023/07/17 04:33:07;;;;;;;5.08;2.72;;;;;;;30.89;32.53;100365.16;1768207;81;21863;-80
2023/07/17 04:36:15;;;;;;;5.85;2.70;;;;;;;30.93;32.98;100371.29;1768990;81;21340;-80
2023/07/17 04:39:22;;;;;;;5.28;3.20;;;;;;;31.21;32.44;100369.34;1769967;80;21272;-80
2023/07/17 04:42:28;;;;;;;15.90;3.62;;;;;;;30.98;32.94;100370.36;1771291;80;21839;-80
2023/07/17 04:45:33;;;;;;;7.05;3.05;;;;;;;31.12;32.88;100374.62;1719019;83;21941;-80
2023/07/17 04:48:42;;;;;;;7.55;2.85;;;;;;;31.21;32.95;100377.81;1766570;81;21867;-80
2023/07/17 04:51:47;;;;;;;6.87;3.55;;;;;;;31.29;32.41;100373.47;1759709;81;21321;-79
2023/07/17 04:54:53;;;;;;;10.45;3.25;;;;;;;31.15;33.07;100364.95;1720887;82;21319;-80
2023/07/17 04:57:59;;;;;;;8.90;3.08;;;;;;;31.34;33.08;100368.30;1716040;83;21920;-79
2023/07/17 05:01:08;;;;;;;8.10;3.42;;;;;;;31.44;32.89;100377.97;1717660;83;21885;-80
2023/07/17 05:04:14;;;;;;;5.85;3.22;;;;;;;31.56;32.75;100376.84;1715685;83;21876;-79
2023/07/17 05:07:22;;;;;;;6.50;2.60;;;;;;;31.61;32.08;100375.32;1716123;83;21338;-81
2023/07/17 05:10:26;;;;;;;9.50;3.00;;;;;;;31.74;32.15;100375.89;1716559;83;21397;-80
2023/07/17 05:13:34;;;;;;;6.35;2.67;;;;;;;31.81;31.82;100381.97;1702705;84;21323;-80
2023/07/17 05:16:41;;;;;;;10.15;3.05;;;;;;;31.89;31.78;100378.98;1757310;81;21666;-80
2023/07/17 05:19:48;;;;;;;18.37;2.67;;;;;;;31.89;31.38;100383.80;1755755;81;21317;-79
2023/07/17 05:22:57;;;;;;;8.15;2.50;;;;;;;32.13;31.60;100382.95;1755866;81;21552;-80
2023/07/17 05:26:05;;;;;;;13.38;2.92;;;;;;;32.25;31.17;100379.00;1756162;81;21662;-80
2023/07/17 05:29:12;;;;;;;7.65;2.30;;;;;;;32.24;30.65;100381.58;1758939;80;21286;-79
2023/07/17 05:32:20;;;;;;;8.08;2.60;;;;;;;32.55;30.07;100380.25;1724396;82;21331;-80
2023/07/17 05:35:26;;;;;;;8.90;2.65;;;;;;;32.73;29.51;100385.47;1767563;81;21314;-79
2023/07/17 05:38:33;;;;;;;5.87;2.67;;;;;;;32.78;29.59;100378.84;1767965;81;21321;-80
2023/07/17 05:41:40;;;;;;;14.65;2.75;;;;;;;32.86;29.88;100378.06;1768752;81;21302;-80
2023/07/17 05:44:47;;;;;;;6.92;2.70;;;;;;;33.08;29.10;100382.89;1716656;83;21323;-80
2023/07/17 05:47:52;;;;;;;12.18;2.62;;;;;;;33.05;29.43;100391.45;1767007;80;21829;-80
2023/07/17 05:50:58;;;;;;;11.65;2.90;;;;;;;33.14;28.38;100389.25;1719592;83;21831;-80
2023/07/17 05:54:04;;;;;;;8.85;2.58;;;;;;;33.05;28.90;100382.95;1768643;81;21226;-80
2023/07/17 05:57:11;;;;;;;5.08;2.70;;;;;;;33.11;28.50;100382.80;1713866;83;21295;-80
2023/07/17 06:00:19;;;;;;;4.22;2.83;;;;;;;33.09;28.90;100381.73;1717095;83;21306;-79
2023/07/17 06:03:25;;;;;;;7.30;2.95;;;;;;;33.45;28.92;100385.81;1698774;83;21338;-80
2023/07/17 06:06:32;;;;;;;5.00;2.83;;;;;;;33.46;29.04;100388.92;1716528;83;21315;-80
2023/07/17 06:09:38;;;;;;;8.53;3.02;;;;;;;33.47;29.23;100385.51;1715181;83;21338;-80
2023/07/17 06:12:44;;;;;;;6.03;2.77;;;;;;;33.68;28.68;100391.40;1715667;83;21901;-80
2023/07/17 06:15:43;;;;;;;6.60;3.00;;;;;;;33.84;28.33;100385.53;1715262;83;21318;-79
2023/07/17 06:18:50;;;;;;;6.78;2.85;;;;;;;33.67;28.31;100394.82;1716315;83;21964;-80
2023/07/17 06:21:55;;;;;;;7.28;3.50;;;;;;;33.75;27.99;100388.34;1725613;83;21914;-80
2023/07/17 06:25:01;;;;;;;6.87;2.30;;;;;;;33.95;28.33;100385.48;1725523;83;21326;-80
2023/07/17 06:28:07;;;;;;;6.20;2.52;;;;;;;33.81;27.47;100381.34;1719394;83;21655;-80
2023/07/17 06:31:13;;;;;;;6.45;2.10;;;;;;;33.81;27.70;100388.43;1725324;83;21869;-80
2023/07/17 06:34:19;;;;;;;4.80;1.98;;;;;;;33.98;27.71;100386.26;1718688;83;21302;-80
2023/07/17 06:37:18;;;;;;;3.10;1.80;;;;;;;34.09;26.56;100382.50;1716627;83;21889;-80
2023/07/17 06:40:14;;;;;;;5.15;1.90;;;;;;;33.93;26.53;100381.30;1715937;83;21338;-80
2023/07/17 06:43:19;;;;;;;4.47;1.90;;;;;;;33.96;26.57;100382.06;1715531;83;21357;-80
2023/07/17 06:46:26;;;;;;;8.95;1.80;;;;;;;34.04;25.87;100382.67;1712846;83;21286;-80
2023/07/17 06:49:31;;;;;;;3.83;1.67;;;;;;;34.19;24.58;100386.43;1711235;83;21310;-80
2023/07/17 06:52:38;;;;;;;5.50;1.90;;;;;;;33.61;25.32;100378.30;1712208;83;21322;-80
2023/07/17 06:55:45;;;;;;;6.30;1.40;;;;;;;33.55;24.68;100383.29;1711760;83;21972;-80
2023/07/17 06:58:51;;;;;;;8.35;1.77;;;;;;;33.57;24.59;100387.45;1714921;83;21370;-80
2023/07/17 07:01:58;;;;;;;2.67;1.17;;;;;;;33.68;24.98;100382.30;1715364;83;21349;-80
2023/07/17 07:05:04;;;;;;;4.87;1.82;;;;;;;33.98;24.12;100383.42;1686879;85;21314;-80
2023/07/17 07:08:10;;;;;;;8.25;1.50;;;;;;;34.03;23.86;100385.27;1688197;85;21386;-80
2023/07/17 07:11:16;;;;;;;2.98;1.37;;;;;;;34.00;23.21;100377.40;1687815;85;21318;-80
2023/07/17 07:14:23;;;;;;;2.70;1.72;;;;;;;34.08;23.19;100375.17;1701359;84;21856;-80
2023/07/17 07:17:29;;;;;;;5.05;1.60;;;;;;;34.08;23.19;100375.17;1701989;83;21871;-80
2023/07/17 07:20:36;;;;;;;3.67;1.50;;;;;;;34.05;22.62;100380.08;1702597;83;21342;-80
2023/07/17 07:23:41;;;;;;;2.60;1.32;;;;;;;34.18;23.26;100381.93;1708156;84;21351;-80
2023/07/17 07:26:47;;;;;;;5.92;1.45;;;;;;;34.25;21.65;100379.45;1711650;83;21377;-80
2023/07/17 07:29:52;;;;;;;3.00;1.52;;;;;;;34.16;21.75;100374.91;1747878;81;21277;-79
2023/07/17 07:32:59;;;;;;;4.28;1.32;;;;;;;34.28;21.07;100370.83;1715088;83;21906;-80
2023/07/17 07:36:07;;;;;;;7.62;1.50;;;;;;;34.27;21.34;100379.09;1768869;81;21297;-80
2023/07/17 07:39:14;;;;;;;2.33;1.25;;;;;;;34.39;20.83;100367.06;1761306;81;21360;-79
2023/07/17 07:42:21;;;;;;;5.92;1.62;;;;;;;34.59;20.55;100367.84;1716707;83;21960;-80
2023/07/17 07:45:25;;;;;;;6.30;2.40;;;;;;;34.59;20.55;100367.84;1767676;81;21293;-81
2023/07/17 07:48:32;;;;;;;5.08;2.20;;;;;;;34.70;21.09;100359.21;1715959;83;21330;-80
2023/07/17 07:51:38;;;;;;;7.08;2.40;;;;;;;34.78;21.07;100362.63;1732673;83;21442;-80
2023/07/17 07:54:44;;;;;;;4.60;2.75;;;;;;;34.81;21.00;100363.35;1732825;83;21306;-80
2023/07/17 07:57:51;;;;;;;5.17;2.87;;;;;;;34.89;21.08;100367.94;1732580;82;22485;-80
2023/07/17 08:00:57;;;;;;;7.10;3.27;;;;;;;34.89;21.08;100367.94;1731042;83;21337;-80
2023/07/17 08:04:03;;;;;;;5.90;2.77;;;;;;;35.05;21.29;100360.00;1730991;83;21346;-80
2023/07/17 08:07:09;;;;;;;5.22;2.27;;;;;;;35.20;21.69;100345.81;1732490;83;21306;-80
2023/07/17 08:10:30;;;;;;;5.85;2.62;;;;;;;35.20;21.69;100345.81;1732043;83;21952;-80
2023/07/17 08:13:36;;;;;;;10.03;2.40;;;;;;;35.79;21.33;100341.56;1731288;83;21338;-80
2023/07/17 08:16:41;;;;;;;7.22;2.95;;;;;;;35.79;21.33;100341.56;1731149;83;21306;-80
2023/07/17 08:19:48;;;;;;;6.10;3.20;;;;;;;35.73;20.74;100349.23;1731119;83;21972;-80
2023/07/17 08:22:55;;;;;;;6.37;3.10;;;;;;;35.09;20.80;100343.08;1731802;82;21341;-80
2023/07/17 08:26:01;;;;;;;8.40;2.55;;;;;;;35.17;21.27;100347.90;1731193;83;21309;-80
2023/07/17 08:29:07;;;;;;;7.28;3.02;;;;;;;35.17;21.27;100347.90;1731291;83;21301;-80
2023/07/17 08:32:14;;;;;;;5.62;2.70;;;;;;;35.58;20.70;100335.02;1732664;83;21921;-80
2023/07/17 08:35:19;;;;;;;8.53;3.00;;;;;;;35.38;20.77;100349.97;1731657;83;21337;-80
2023/07/17 08:38:26;;;;;;;6.83;2.33;;;;;;;35.47;20.74;100350.80;1731346;83;21302;-80
2023/07/17 08:41:31;;;;;;;7.83;3.15;;;;;;;35.31;20.94;100351.94;1731283;83;21338;-80
2023/07/17 08:44:38;;;;;;;11.90;3.42;;;;;;;35.20;21.34;100363.45;1732563;82;21321;-80
2023/07/17 08:47:46;;;;;;;8.95;2.95;;;;;;;35.21;21.08;100356.00;1731251;83;21884;-80
2023/07/17 08:50:53;;;;;;;8.65;3.25;;;;;;;35.31;21.25;100359.88;1731718;83;21385;-80
2023/07/17 08:53:58;;;;;;;12.78;3.37;;;;;;;35.43;21.91;100362.02;1723375;82;21325;-80
2023/07/17 08:57:11;;;;;;;8.50;3.27;;;;;;;35.43;21.91;100362.02;1733218;83;21286;-80
2023/07/17 09:00:19;;;;;;;12.30;3.80;;;;;;;35.48;21.53;100345.37;1732594;83;21365;-80
2023/07/17 09:03:25;;;;;;;7.83;3.00;;;;;;;35.07;21.89;100353.97;1731380;83;21325;-80
2023/07/17 09:06:34;;;;;;;8.28;3.70;;;;;;;35.07;21.88;100349.11;1732540;83;21314;-80
2023/07/17 09:09:40;;;;;;;13.45;4.30;;;;;;;35.05;22.46;100351.47;1732259;83;21314;-80
2023/07/17 09:12:49;;;;;;;7.83;3.80;;;;;;;35.26;21.93;100337.33;1732402;81;21900;-80
2023/07/17 09:15:49;;;;;;;7.37;3.75;;;;;;;35.26;21.93;100337.33;1728557;83;21946;-80
2023/07/17 09:18:57;;;;;;;15.50;4.70;;;;;;;35.54;21.91;100336.88;1768405;81;21290;-80
2023/07/17 09:22:05;;;;;;;8.65;4.55;;;;;;;35.81;21.59;100344.91;1715832;83;21332;-80
2023/07/17 09:25:12;;;;;;;12.07;4.58;;;;;;;35.51;22.04;100334.12;1733899;82;21309;-80
2023/07/17 09:28:19;;;;;;;9.88;4.72;;;;;;;35.57;21.64;100330.48;1762458;81;21369;-80
2023/07/17 09:31:36;;;;;;;8.58;4.10;;;;;;;35.58;21.90;100328.74;1720955;83;21856;-80
2023/07/17 09:34:43;;;;;;;9.18;4.30;;;;;;;35.57;21.98;100330.48;1766552;81;21318;-80
2023/07/17 09:37:51;;;;;;;9.75;4.30;;;;;;;35.64;21.77;100327.95;1723963;83;21834;-80
2023/07/17 09:40:58;;;;;;;11.85;4.35;;;;;;;35.71;21.94;100321.70;1725927;83;21361;-80
2023/07/17 09:44:14;;;;;;;9.30;3.92;;;;;;;35.89;22.60;100322.41;1724507;83;21262;-80
2023/07/17 09:47:21;;;;;;;7.85;3.60;;;;;;;36.02;22.40;100318.50;1717019;83;21318;-80
2023/07/17 09:50:27;;;;;;;10.30;4.00;;;;;;;35.98;22.38;100318.95;1688065;85;21223;-80
2023/07/17 09:53:33;;;;;;;9.55;3.90;;;;;;;35.75;21.86;100314.14;1688392;85;21323;-80
2023/07/17 09:56:39;;;;;;;7.05;3.42;;;;;;;35.75;21.86;100314.14;1688470;85;21322;-81
2023/07/17 09:59:48;;;;;;;14.95;4.45;;;;;;;35.80;22.32;100309.08;1688014;85;21358;-81
2023/07/17 10:03:17;;;;;;;13.72;5.12;;;;;;;35.64;22.78;100317.16;1711730;83;21334;-81
2023/07/17 10:06:23;;;;;;;14.33;4.33;;;;;;;35.60;22.42;100312.74;1716174;83;21362;-80
2023/07/17 10:09:29;;;;;;;10.00;4.37;;;;;;;35.55;22.76;100311.52;1717602;83;21311;-80
2023/07/17 10:12:38;;;;;;;9.18;4.85;;;;;;;35.64;23.19;100306.61;1715645;83;21322;-80
2023/07/17 10:15:43;;;;;;;11.03;4.53;;;;;;;35.77;22.77;100308.37;1715553;83;21317;-80
2023/07/17 10:18:55;;;;;;;10.90;3.10;;;;;;;35.83;23.01;100304.13;1716988;83;21366;-80
2023/07/17 10:22:05;;;;;;;7.40;3.42;;;;;;;35.72;22.52;100312.84;1716035;83;21342;-80
2023/07/17 10:25:29;;;;;;;5.05;3.00;;;;;;;35.72;22.51;100312.84;1693151;83;21347;-80
2023/07/17 10:28:39;;;;;;;6.45;2.50;;;;;;;35.72;22.29;100308.58;1731526;82;21372;-80
2023/07/17 10:31:46;;;;;;;4.58;2.25;;;;;;;35.85;22.05;100313.73;1722985;82;21258;-79
2023/07/17 10:34:59;;;;;;;9.20;2.30;;;;;;;35.73;21.96;100313.08;1705467;82;21302;-80
2023/07/17 10:38:17;;;;;;;4.10;2.02;;;;;;;35.76;22.37;100312.40;1731259;82;21290;-80
2023/07/17 10:41:28;;;;;;;6.55;2.30;;;;;;;35.81;21.91;100299.39;1731452;82;21841;-80
2023/07/17 10:44:34;;;;;;;5.65;1.77;;;;;;;36.14;22.02;100300.07;1732910;82;21302;-80
2023/07/17 10:47:41;;;;;;;6.65;2.10;;;;;;;36.05;22.21;100301.56;1721687;83;21899;-80
2023/07/17 10:50:59;;;;;;;4.35;1.82;;;;;;;36.12;21.87;100296.73;1741330;82;22251;-80
2023/07/17 10:54:04;;;;;;;3.47;2.08;;;;;;;36.17;22.88;100282.27;1749582;82;21297;-80
2023/07/17 10:57:09;;;;;;;5.30;1.98;;;;;;;36.16;22.23;100281.21;1732851;82;21306;-80
2023/07/17 11:00:14;;;;;;;6.78;2.30;;;;;;;36.25;22.19;100271.41;1732657;82;21338;-79
2023/07/17 11:03:26;;;;;;;5.90;2.00;;;;;;;36.17;22.25;100273.73;1733304;82;21348;-80
2023/07/17 11:06:35;;;;;;;5.85;2.37;;;;;;;36.30;22.64;100279.72;1732652;82;21365;-80
2023/07/17 11:09:40;;;;;;;;;;;;;;;36.26;22.63;100276.50;1735522;81;21203;-79
2023/07/17 11:12:47;;;;;;;5.55;2.08;;;;;;;36.46;22.58;100274.81;1732220;81;20224;-80
2023/07/17 11:15:54;;;;;;;4.12;1.92;;;;;;;36.39;22.26;100275.96;1732532;82;21873;-80
2023/07/17 11:19:04;;;;;;;7.72;1.85;;;;;;;36.18;22.01;100261.75;1742801;82;21638;-80
2023/07/17 11:22:09;;;;;;;6.90;2.10;;;;;;;36.23;22.57;100275.77;1713973;83;21370;-80
2023/07/17 11:25:16;;;;;;;5.60;2.45;;;;;;;36.37;22.26;100271.19;1717691;82;21339;-80
2023/07/17 11:28:21;;;;;;;8.13;2.33;;;;;;;36.29;21.95;100270.95;1711926;81;21283;-80
2023/07/17 11:31:34;;;;;;;4.55;2.30;;;;;;;36.20;21.87;100263.08;1683243;84;21311;-79
2023/07/17 11:34:45;;;;;;;7.80;2.10;;;;;;;36.49;21.92;100257.03;1733896;82;21306;-79
2023/07/17 11:37:49;;;;;;;;;;;;;;;36.42;22.10;100263.84;1729059;82;21912;-79
2023/07/17 11:41:04;;;;;;;6.10;2.27;;;;;;;36.46;22.47;100251.44;1735930;82;20267;-80
2023/07/17 11:44:09;;;;;;;4.70;2.15;;;;;;;36.46;21.86;100250.61;1731877;82;21655;-79
2023/07/17 11:47:13;;;;;;;5.08;2.15;;;;;;;36.63;21.91;100236.17;1703632;82;21310;-79
2023/07/17 11:50:20;;;;;;;3.75;2.10;;;;;;;36.68;21.43;100238.80;1731584;82;21306;-79
2023/07/17 11:53:27;;;;;;;5.90;1.87;;;;;;;36.31;21.86;100244.36;1732871;82;21352;-80
2023/07/17 11:56:45;;;;;;;3.22;1.70;;;;;;;36.53;21.73;100249.45;1736084;82;21310;-80
2023/07/17 11:59:53;;;;;;;3.87;1.82;;;;;;;36.61;21.72;100241.41;1734421;82;21374;-79
2023/07/17 12:03:06;;;;;;;2.72;2.02;;;;;;;36.36;21.71;100234.77;1732386;82;21337;-80
2023/07/17 12:06:12;;;;;;;3.85;2.15;;;;;;;36.43;22.20;100241.36;1731497;82;21305;-80
2023/07/17 12:09:18;;;;;;;5.97;1.90;;;;;;;36.30;21.45;100237.61;1733361;82;21345;-80
2023/07/17 12:12:24;;;;;;;8.88;1.80;;;;;;;36.29;21.77;100232.51;1731346;82;22590;-80
2023/07/17 12:15:30;;;;;;;4.25;2.02;;;;;;;36.05;22.02;100228.98;1733289;82;21317;-80
2023/07/17 12:18:37;;;;;;;3.20;1.80;;;;;;;35.99;22.08;100233.20;1734112;82;21853;-80
2023/07/17 12:21:44;;;;;;;2.90;2.20;;;;;;;36.05;21.64;100228.16;1735973;82;21857;-80
2023/07/17 12:24:50;;;;;;;4.20;2.25;;;;;;;36.09;21.97;100231.38;1734830;82;21364;-80
2023/07/17 12:27:58;;;;;;;3.72;2.12;;;;;;;36.30;21.54;100224.80;1701612;84;21307;-80
2023/07/17 12:31:03;;;;;;;7.58;2.45;;;;;;;36.06;21.29;100226.38;1701449;84;21312;-80
2023/07/17 12:34:09;;;;;;;4.50;2.08;;;;;;;35.94;21.82;100231.14;1724548;82;22153;-79
2023/07/17 12:37:14;;;;;;;6.35;2.22;;;;;;;36.00;21.30;100229.80;1678927;85;21306;-80
2023/07/17 12:40:20;;;;;;;9.33;2.17;;;;;;;36.14;20.97;100221.79;1681405;85;21964;-79
2023/07/17 12:43:27;;;;;;;4.33;2.42;;;;;;;36.23;21.51;100219.69;1690789;84;22062;-79
2023/07/17 12:46:32;;;;;;;8.03;2.60;;;;;;;36.17;22.05;100219.64;1652764;86;21329;-79
2023/07/17 12:49:38;;;;;;;10.58;2.42;;;;;;;36.08;21.58;100220.32;1670246;85;21315;-79
2023/07/17 12:52:43;;;;;;;5.62;2.05;;;;;;;36.13;21.66;100214.41;1675208;85;21353;-79
2023/07/17 12:55:48;;;;;;;4.03;2.00;;;;;;;36.16;21.61;100208.62;1679441;85;21357;-80
2023/07/17 12:58:55;;;;;;;3.98;2.20;;;;;;;35.99;21.60;100212.45;1668440;86;22361;-79
2023/07/17 13:02:00;;;;;;;6.30;2.40;;;;;;;35.90;21.93;100215.94;1674216;85;22581;-79
2023/07/17 13:05:06;;;;;;;5.95;2.12;;;;;;;35.99;21.89;100212.45;1734495;82;21326;-79
2023/07/17 13:08:12;;;;;;;5.25;1.92;;;;;;;35.87;22.02;100204.69;1680133;85;21719;-80
2023/07/17 13:11:18;;;;;;;9.75;2.50;;;;;;;35.81;22.24;100198.38;1670177;85;21311;-79
2023/07/17 13:14:25;;;;;;;4.25;1.98;;;;;;;35.58;22.41;100189.37;1675522;85;21345;-81
2023/07/17 13:17:33;;;;;;;4.00;2.05;;;;;;;35.69;22.02;100192.63;1682720;84;21301;-79
2023/07/17 13:20:41;;;;;;;6.53;2.20;;;;;;;35.75;22.12;100191.22;1733694;82;21295;-80
2023/07/17 13:23:46;;;;;;;7.15;2.25;;;;;;;35.70;22.34;100184.91;1694846;84;22578;-80
2023/07/17 13:26:54;;;;;;;5.72;2.08;;;;;;;35.68;22.82;100184.45;1749384;80;21336;-80
2023/07/17 13:30:01;;;;;;;7.42;2.60;;;;;;;35.73;23.03;100185.06;1726098;82;21331;-80
2023/07/17 13:33:07;;;;;;;6.28;2.27;;;;;;;35.63;22.91;100186.91;1718316;83;21311;-79
2023/07/17 13:36:12;;;;;;;7.58;2.42;;;;;;;35.70;22.98;100182.90;1716986;83;21294;-79
2023/07/17 13:39:17;;;;;;;6.62;2.45;;;;;;;35.64;22.95;100180.63;1717694;83;21660;-79
2023/07/17 13:42:23;;;;;;;11.00;2.55;;;;;;;35.64;22.95;100180.63;1718286;83;21310;-78
2023/07/17 13:45:29;;;;;;;8.70;1.95;;;;;;;35.69;23.43;100167.02;1716743;83;21260;-79
2023/07/17 13:48:35;;;;;;;4.72;2.30;;;;;;;35.69;23.43;100167.02;1718136;83;21298;-79
2023/07/17 13:51:41;;;;;;;4.35;2.30;;;;;;;35.76;23.34;100167.30;1725301;83;21334;-79
2023/07/17 13:54:47;;;;;;;4.25;2.15;;;;;;;35.58;23.68;100161.53;1725240;83;21322;-79
2023/07/17 13:57:54;;;;;;;4.53;2.83;;;;;;;35.48;23.40;100153.42;1725798;83;21319;-79
2023/07/17 14:00:59;;;;;;;8.03;2.65;;;;;;;35.40;23.87;100146.58;1725274;83;22623;-79
2023/07/17 14:04:07;;;;;;;4.72;2.40;;;;;;;35.44;23.88;100151.83;1725566;83;21885;-79
2023/07/17 14:07:12;;;;;;;3.22;2.08;;;;;;;35.43;23.75;100152.15;1725578;83;21317;-79
2023/07/17 14:10:36;;;;;;;4.72;2.40;;;;;;;35.40;24.27;100135.80;1725486;83;21230;-79
2023/07/17 14:13:41;;;;;;;5.65;2.12;;;;;;;35.40;24.27;100135.80;1725695;83;21309;-79
2023/07/17 14:16:47;;;;;;;5.10;2.20;;;;;;;35.17;24.39;100146.68;1724337;83;21350;-79
2023/07/17 14:19:52;;;;;;;6.53;2.60;;;;;;;35.30;24.44;100139.30;1717065;83;21301;-79
2023/07/17 14:22:57;;;;;;;6.60;2.30;;;;;;;35.33;23.98;100142.86;1744553;82;21317;-79
2023/07/17 14:26:04;;;;;;;7.75;3.00;;;;;;;35.12;24.62;100143.45;1743998;82;21373;-79
2023/07/17 14:29:10;;;;;;;9.90;2.72;;;;;;;35.12;24.62;100143.45;1759060;81;21357;-79
2023/07/17 14:32:17;;;;;;;8.55;2.80;;;;;;;35.04;24.36;100133.80;1755243;81;21321;-78
2023/07/17 14:35:23;;;;;;;3.40;1.92;;;;;;;34.93;24.52;100141.63;1762694;81;21302;-79